sensor_id;sensor_type;location;lat;lon;timestamp;P1;durP1;ratioP1;P2;durP2;ratioP2
77415;SDS011;66489;49.230;8.520;2023-02-27T05:01:27;4.43;;;1.88;;
77415;SDS011;66489;49.230;8.520;2023-02-27T05:03:56;3.90;;;1.33;;
77415;SDS011;66489;49.230;8.520;2023-02-27T05:06:26;4.47;;;1.35;;
77415;SDS011;66489;49.230;8.520;2023-02-27T05:09:02;6.10;;;1.40;;
77415;SDS011;66489;49.230;8.520;2023-02-27T05:11:40;3.38;;;1.40;;
77415;SDS011;66489;49.230;8.520;2023-02-27T05:14:12;8.30;;;1.90;;
77415;SDS011;66489;49.230;8.520;2023-02-27T05:16:49;4.63;;;1.83;;
77415;SDS011;66489;49.230;8.520;2023-02-27T05:19:17;4.75;;;1.40;;
77415;SDS011;66489;49.230;8.520;2023-02-27T05:21:56;2.97;;;1.27;;
77415;SDS011;66489;49.230;8.520;2023-02-27T05:27:11;3.55;;;1.30;;
77415;SDS011;66489;49.230;8.520;2023-02-27T05:35:12;4.03;;;1.30;;
77415;SDS011;66489;49.230;8.520;2023-02-27T05:37:45;4.38;;;1.70;;
77415;SDS011;66489;49.230;8.520;2023-02-27T05:40:17;4.00;;;1.50;;
77415;SDS011;66489;49.230;8.520;2023-02-27T05:42:48;3.85;;;1.40;;
77415;SDS011;66489;49.230;8.520;2023-02-27T05:45:28;3.35;;;1.42;;
77415;SDS011;66489;49.230;8.520;2023-02-27T05:47:58;5.88;;;1.67;;
77415;SDS011;66489;49.230;8.520;2023-02-27T05:50:31;4.38;;;1.65;;
77415;SDS011;66489;49.230;8.520;2023-02-27T05:53:01;5.65;;;1.50;;
77415;SDS011;66489;49.230;8.520;2023-02-27T05:55:33;3.70;;;1.33;;
77415;SDS011;66489;49.230;8.520;2023-02-27T06:00:58;4.30;;;1.50;;
77415;SDS011;66489;49.230;8.520;2023-02-27T06:03:27;3.63;;;1.30;;
77415;SDS011;66489;49.230;8.520;2023-02-27T06:05:54;4.20;;;1.60;;
77415;SDS011;66489;49.230;8.520;2023-02-27T06:08:23;3.30;;;1.40;;
77415;SDS011;66489;49.230;8.520;2023-02-27T06:10:49;4.75;;;1.35;;
77415;SDS011;66489;49.230;8.520;2023-02-27T06:13:16;4.30;;;1.50;;
77415;SDS011;66489;49.230;8.520;2023-02-27T06:15:44;4.93;;;1.58;;
77415;SDS011;66489;49.230;8.520;2023-02-27T06:18:11;3.25;;;1.30;;
77415;SDS011;66489;49.230;8.520;2023-02-27T06:20:38;4.75;;;1.75;;
77415;SDS011;66489;49.230;8.520;2023-02-27T06:23:05;4.95;;;1.90;;
77415;SDS011;66489;49.230;8.520;2023-02-27T06:25:32;4.63;;;1.60;;
77415;SDS011;66489;49.230;8.520;2023-02-27T06:27:59;4.93;;;1.70;;
77415;SDS011;66489;49.230;8.520;2023-02-27T06:30:25;4.43;;;1.70;;
77415;SDS011;66489;49.230;8.520;2023-02-27T06:32:52;5.63;;;1.73;;
77415;SDS011;66489;49.230;8.520;2023-02-27T06:35:19;4.07;;;1.50;;
77415;SDS011;66489;49.230;8.520;2023-02-27T06:37:46;5.07;;;1.77;;
77415;SDS011;66489;49.230;8.520;2023-02-27T06:40:13;4.38;;;1.70;;
77415;SDS011;66489;49.230;8.520;2023-02-27T06:42:40;3.97;;;1.45;;
77415;SDS011;66489;49.230;8.520;2023-02-27T06:45:08;4.35;;;1.63;;
77415;SDS011;66489;49.230;8.520;2023-02-27T06:47:35;3.90;;;1.70;;
77415;SDS011;66489;49.230;8.520;2023-02-27T06:50:02;4.72;;;1.90;;
77415;SDS011;66489;49.230;8.520;2023-02-27T06:52:30;5.35;;;1.75;;
77415;SDS011;66489;49.230;8.520;2023-02-27T06:55:00;4.38;;;1.80;;
77415;SDS011;66489;49.230;8.520;2023-02-27T06:57:27;5.57;;;1.73;;
77415;SDS011;66489;49.230;8.520;2023-02-27T06:59:53;3.47;;;1.60;;
77415;SDS011;66489;49.230;8.520;2023-02-27T07:02:20;4.88;;;1.85;;
77415;SDS011;66489;49.230;8.520;2023-02-27T07:04:48;4.32;;;1.92;;
77415;SDS011;66489;49.230;8.520;2023-02-27T07:07:15;7.53;;;1.80;;
77415;SDS011;66489;49.230;8.520;2023-02-27T07:10:02;4.63;;;1.98;;
77415;SDS011;66489;49.230;8.520;2023-02-27T07:12:30;4.68;;;1.67;;
77415;SDS011;66489;49.230;8.520;2023-02-27T07:14:56;5.22;;;1.70;;
77415;SDS011;66489;49.230;8.520;2023-02-27T07:17:23;6.30;;;1.95;;
77415;SDS011;66489;49.230;8.520;2023-02-27T07:19:49;3.85;;;1.48;;
77415;SDS011;66489;49.230;8.520;2023-02-27T07:22:16;5.43;;;1.73;;
77415;SDS011;66489;49.230;8.520;2023-02-27T07:24:42;4.70;;;1.77;;
77415;SDS011;66489;49.230;8.520;2023-02-27T07:27:09;4.38;;;1.80;;
77415;SDS011;66489;49.230;8.520;2023-02-27T07:29:35;3.58;;;1.60;;
77415;SDS011;66489;49.230;8.520;2023-02-27T07:32:02;4.82;;;1.60;;
77415;SDS011;66489;49.230;8.520;2023-02-27T07:34:28;5.20;;;1.90;;
77415;SDS011;66489;49.230;8.520;2023-02-27T07:36:55;6.32;;;1.77;;
77415;SDS011;66489;49.230;8.520;2023-02-27T07:39:22;4.07;;;1.40;;
77415;SDS011;66489;49.230;8.520;2023-02-27T07:41:48;3.35;;;1.45;;
77415;SDS011;66489;49.230;8.520;2023-02-27T07:44:15;3.78;;;1.58;;
77415;SDS011;66489;49.230;8.520;2023-02-27T07:46:42;3.72;;;1.40;;
77415;SDS011;66489;49.230;8.520;2023-02-27T07:49:10;4.03;;;2.03;;
77415;SDS011;66489;49.230;8.520;2023-02-27T07:51:36;5.10;;;1.77;;
77415;SDS011;66489;49.230;8.520;2023-02-27T07:54:03;4.28;;;1.70;;
77415;SDS011;66489;49.230;8.520;2023-02-27T07:56:29;3.85;;;1.65;;
77415;SDS011;66489;49.230;8.520;2023-02-27T07:58:56;3.53;;;1.40;;
77415;SDS011;66489;49.230;8.520;2023-02-27T08:01:23;3.67;;;1.60;;
77415;SDS011;66489;49.230;8.520;2023-02-27T08:03:49;5.00;;;1.92;;
77415;SDS011;66489;49.230;8.520;2023-02-27T08:06:16;5.25;;;1.63;;
77415;SDS011;66489;49.230;8.520;2023-02-27T08:08:42;3.58;;;1.63;;
77415;SDS011;66489;49.230;8.520;2023-02-27T08:11:09;6.90;;;2.30;;
77415;SDS011;66489;49.230;8.520;2023-02-27T08:13:36;4.10;;;1.58;;
77415;SDS011;66489;49.230;8.520;2023-02-27T08:16:22;3.75;;;1.33;;
77415;SDS011;66489;49.230;8.520;2023-02-27T08:18:49;4.47;;;1.60;;
77415;SDS011;66489;49.230;8.520;2023-02-27T08:21:16;3.95;;;1.58;;
77415;SDS011;66489;49.230;8.520;2023-02-27T08:23:42;6.22;;;2.10;;
77415;SDS011;66489;49.230;8.520;2023-02-27T08:26:09;4.00;;;1.58;;
77415;SDS011;66489;49.230;8.520;2023-02-27T08:28:37;3.83;;;1.40;;
77415;SDS011;66489;49.230;8.520;2023-02-27T08:31:03;3.60;;;1.58;;
77415;SDS011;66489;49.230;8.520;2023-02-27T08:33:30;3.67;;;1.40;;
77415;SDS011;66489;49.230;8.520;2023-02-27T08:35:56;3.10;;;1.40;;
77415;SDS011;66489;49.230;8.520;2023-02-27T08:38:23;3.53;;;1.30;;
77415;SDS011;66489;49.230;8.520;2023-02-27T08:40:51;4.45;;;1.27;;
77415;SDS011;66489;49.230;8.520;2023-02-27T08:43:21;4.70;;;1.38;;
77415;SDS011;66489;49.230;8.520;2023-02-27T08:45:48;5.50;;;1.63;;
77415;SDS011;66489;49.230;8.520;2023-02-27T08:48:15;3.20;;;1.30;;
77415;SDS011;66489;49.230;8.520;2023-02-27T08:50:43;4.38;;;1.67;;
77415;SDS011;66489;49.230;8.520;2023-02-27T08:53:11;5.57;;;1.30;;
77415;SDS011;66489;49.230;8.520;2023-02-27T08:55:38;3.75;;;1.60;;
77415;SDS011;66489;49.230;8.520;2023-02-27T08:58:04;3.17;;;1.10;;
77415;SDS011;66489;49.230;8.520;2023-02-27T09:00:31;4.90;;;1.20;;
77415;SDS011;66489;49.230;8.520;2023-02-27T09:02:58;6.93;;;1.50;;
77415;SDS011;66489;49.230;8.520;2023-02-27T09:05:26;4.43;;;1.27;;
77415;SDS011;66489;49.230;8.520;2023-02-27T09:07:53;3.97;;;1.23;;
77415;SDS011;66489;49.230;8.520;2023-02-27T09:10:20;2.50;;;1.10;;
77415;SDS011;66489;49.230;8.520;2023-02-27T09:12:47;3.40;;;1.55;;
77415;SDS011;66489;49.230;8.520;2023-02-27T09:15:14;3.33;;;1.33;;
77415;SDS011;66489;49.230;8.520;2023-02-27T09:17:41;3.15;;;1.35;;
77415;SDS011;66489;49.230;8.520;2023-02-27T09:20:07;3.38;;;1.20;;
77415;SDS011;66489;49.230;8.520;2023-02-27T09:22:36;3.88;;;1.30;;
77415;SDS011;66489;49.230;8.520;2023-02-27T09:25:02;4.18;;;1.58;;
77415;SDS011;66489;49.230;8.520;2023-02-27T09:27:29;4.25;;;1.60;;
77415;SDS011;66489;49.230;8.520;2023-02-27T09:29:56;7.13;;;2.13;;
77415;SDS011;66489;49.230;8.520;2023-02-27T09:32:23;3.97;;;1.60;;
77415;SDS011;66489;49.230;8.520;2023-02-27T09:34:51;3.30;;;1.50;;
77415;SDS011;66489;49.230;8.520;2023-02-27T09:37:17;5.13;;;1.55;;
77415;SDS011;66489;49.230;8.520;2023-02-27T09:39:47;3.63;;;1.40;;
77415;SDS011;66489;49.230;8.520;2023-02-27T09:42:15;5.40;;;1.60;;
77415;SDS011;66489;49.230;8.520;2023-02-27T09:44:47;3.40;;;1.30;;
77415;SDS011;66489;49.230;8.520;2023-02-27T09:47:23;3.55;;;1.20;;
77415;SDS011;66489;49.230;8.520;2023-02-27T09:50:05;3.10;;;1.30;;
77415;SDS011;66489;49.230;8.520;2023-02-27T09:52:34;3.78;;;1.30;;
77415;SDS011;66489;49.230;8.520;2023-02-27T09:55:03;3.58;;;1.23;;
77415;SDS011;66489;49.230;8.520;2023-02-27T09:57:37;3.50;;;1.20;;
77415;SDS011;66489;49.230;8.520;2023-02-27T10:01:01;3.40;;;1.50;;
77415;SDS011;66489;49.230;8.520;2023-02-27T10:05:44;4.65;;;1.48;;
77415;SDS011;66489;49.230;8.520;2023-02-27T10:08:28;3.45;;;1.40;;
77415;SDS011;66489;49.230;8.520;2023-02-27T10:11:00;5.68;;;2.00;;
77415;SDS011;66489;49.230;8.520;2023-02-27T10:16:20;4.55;;;1.77;;
77415;SDS011;66489;49.230;8.520;2023-02-27T10:21:50;4.28;;;1.52;;
77415;SDS011;66489;49.230;8.520;2023-02-27T10:26:56;5.68;;;2.22;;
77415;SDS011;66489;49.230;8.520;2023-02-27T10:29:37;5.38;;;1.70;;
77415;SDS011;66489;49.230;8.520;2023-02-27T10:35:08;4.05;;;1.75;;
77415;SDS011;66489;49.230;8.520;2023-02-27T10:37:36;4.27;;;1.43;;
77415;SDS011;66489;49.230;8.520;2023-02-27T10:40:05;8.13;;;2.13;;
77415;SDS011;66489;49.230;8.520;2023-02-27T10:42:34;10.43;;;4.13;;
77415;SDS011;66489;49.230;8.520;2023-02-27T10:47:29;4.00;;;1.30;;
77415;SDS011;66489;49.230;8.520;2023-02-27T10:49:56;4.38;;;1.67;;
77415;SDS011;66489;49.230;8.520;2023-02-27T10:52:25;3.80;;;1.42;;
77415;SDS011;66489;49.230;8.520;2023-02-27T10:54:52;5.20;;;1.50;;
77415;SDS011;66489;49.230;8.520;2023-02-27T10:57:20;3.35;;;1.45;;
77415;SDS011;66489;49.230;8.520;2023-02-27T10:59:54;2.75;;;1.20;;
77415;SDS011;66489;49.230;8.520;2023-02-27T11:02:47;2.83;;;1.23;;
77415;SDS011;66489;49.230;8.520;2023-02-27T11:05:19;3.37;;;1.23;;
77415;SDS011;66489;49.230;8.520;2023-02-27T11:07:50;2.92;;;1.10;;
77415;SDS011;66489;49.230;8.520;2023-02-27T11:10:37;3.60;;;1.50;;
77415;SDS011;66489;49.230;8.520;2023-02-27T11:13:20;3.47;;;1.50;;
77415;SDS011;66489;49.230;8.520;2023-02-27T11:15:59;3.17;;;1.17;;
77415;SDS011;66489;49.230;8.520;2023-02-27T11:29:04;4.10;;;1.70;;
77415;SDS011;66489;49.230;8.520;2023-02-27T11:34:30;4.38;;;1.33;;
77415;SDS011;66489;49.230;8.520;2023-02-27T11:37:18;5.00;;;1.30;;
77415;SDS011;66489;49.230;8.520;2023-02-27T11:39:48;3.88;;;1.70;;
77415;SDS011;66489;49.230;8.520;2023-02-27T11:42:28;4.20;;;1.70;;
77415;SDS011;66489;49.230;8.520;2023-02-27T11:47:30;5.97;;;1.40;;
77415;SDS011;66489;49.230;8.520;2023-02-27T11:50:12;3.20;;;1.35;;
77415;SDS011;66489;49.230;8.520;2023-02-27T11:55:41;4.72;;;1.40;;
77415;SDS011;66489;49.230;8.520;2023-02-27T11:58:17;4.00;;;1.20;;
77415;SDS011;66489;49.230;8.520;2023-02-27T12:00:53;3.35;;;1.52;;
77415;SDS011;66489;49.230;8.520;2023-02-27T12:05:53;4.15;;;1.70;;
77415;SDS011;66489;49.230;8.520;2023-02-27T12:08:27;4.07;;;1.60;;
77415;SDS011;66489;49.230;8.520;2023-02-27T12:13:41;3.92;;;1.55;;
77415;SDS011;66489;49.230;8.520;2023-02-27T12:16:21;4.38;;;1.67;;
77415;SDS011;66489;49.230;8.520;2023-02-27T12:21:51;5.28;;;1.90;;
77415;SDS011;66489;49.230;8.520;2023-02-27T12:26:56;3.50;;;1.48;;
77415;SDS011;66489;49.230;8.520;2023-02-27T12:30:03;4.85;;;1.38;;
77415;SDS011;66489;49.230;8.520;2023-02-27T12:32:35;3.97;;;1.15;;
77415;SDS011;66489;49.230;8.520;2023-02-27T12:37:37;5.28;;;1.50;;
77415;SDS011;66489;49.230;8.520;2023-02-27T12:40:04;3.38;;;1.40;;
77415;SDS011;66489;49.230;8.520;2023-02-27T12:45:29;4.95;;;2.00;;
77415;SDS011;66489;49.230;8.520;2023-02-27T12:50:55;3.80;;;1.40;;
77415;SDS011;66489;49.230;8.520;2023-02-27T13:02:11;3.58;;;1.30;;
77415;SDS011;66489;49.230;8.520;2023-02-27T13:04:17;3.67;;;1.35;;
77415;SDS011;66489;49.230;8.520;2023-02-27T13:07:02;3.33;;;1.40;;
77415;SDS011;66489;49.230;8.520;2023-02-27T13:09:40;3.40;;;1.30;;
77415;SDS011;66489;49.230;8.520;2023-02-27T13:12:22;2.88;;;1.45;;
77415;SDS011;66489;49.230;8.520;2023-02-27T13:20:39;3.92;;;1.50;;
77415;SDS011;66489;49.230;8.520;2023-02-27T13:25:56;2.92;;;1.20;;
77415;SDS011;66489;49.230;8.520;2023-02-27T13:28:25;2.90;;;1.10;;
77415;SDS011;66489;49.230;8.520;2023-02-27T13:36:17;3.42;;;1.30;;
77415;SDS011;66489;49.230;8.520;2023-02-27T13:43:47;4.28;;;1.30;;
77415;SDS011;66489;49.230;8.520;2023-02-27T13:56:43;3.53;;;1.48;;
77415;SDS011;66489;49.230;8.520;2023-02-27T13:59:11;3.35;;;1.25;;
77415;SDS011;66489;49.230;8.520;2023-02-27T14:01:50;3.33;;;1.33;;
77415;SDS011;66489;49.230;8.520;2023-02-27T14:04:18;2.50;;;1.10;;
77415;SDS011;66489;49.230;8.520;2023-02-27T14:06:45;3.40;;;1.42;;
77415;SDS011;66489;49.230;8.520;2023-02-27T14:09:15;3.60;;;1.40;;
77415;SDS011;66489;49.230;8.520;2023-02-27T14:11:54;4.18;;;2.25;;
77415;SDS011;66489;49.230;8.520;2023-02-27T14:17:05;3.97;;;1.80;;
77415;SDS011;66489;49.230;8.520;2023-02-27T14:24:43;4.00;;;1.80;;
77415;SDS011;66489;49.230;8.520;2023-02-27T14:27:28;3.92;;;1.60;;
77415;SDS011;66489;49.230;8.520;2023-02-27T14:29:57;3.65;;;1.98;;
77415;SDS011;66489;49.230;8.520;2023-02-27T14:32:33;5.45;;;2.30;;
77415;SDS011;66489;49.230;8.520;2023-02-27T14:35:01;3.30;;;1.50;;
77415;SDS011;66489;49.230;8.520;2023-02-27T14:37:29;4.70;;;2.10;;
77415;SDS011;66489;49.230;8.520;2023-02-27T14:39:56;6.97;;;1.73;;
77415;SDS011;66489;49.230;8.520;2023-02-27T14:47:32;5.75;;;2.05;;
77415;SDS011;66489;49.230;8.520;2023-02-27T14:50:04;4.10;;;1.90;;
77415;SDS011;66489;49.230;8.520;2023-02-27T14:52:41;7.15;;;2.80;;
77415;SDS011;66489;49.230;8.520;2023-02-27T14:55:19;4.22;;;1.88;;
77415;SDS011;66489;49.230;8.520;2023-02-27T14:57:53;3.92;;;1.98;;
77415;SDS011;66489;49.230;8.520;2023-02-27T15:03:18;4.03;;;1.67;;
77415;SDS011;66489;49.230;8.520;2023-02-27T15:05:47;3.70;;;1.67;;
77415;SDS011;66489;49.230;8.520;2023-02-27T15:08:16;4.68;;;1.95;;
77415;SDS011;66489;49.230;8.520;2023-02-27T15:10:50;3.75;;;1.75;;
77415;SDS011;66489;49.230;8.520;2023-02-27T15:13:26;3.88;;;1.58;;
77415;SDS011;66489;49.230;8.520;2023-02-27T15:18:49;3.40;;;1.40;;
77415;SDS011;66489;49.230;8.520;2023-02-27T15:21:20;3.53;;;1.50;;
77415;SDS011;66489;49.230;8.520;2023-02-27T15:23:52;3.22;;;1.48;;
77415;SDS011;66489;49.230;8.520;2023-02-27T15:26:23;4.97;;;1.80;;
77415;SDS011;66489;49.230;8.520;2023-02-27T15:28:51;4.25;;;1.70;;
77415;SDS011;66489;49.230;8.520;2023-02-27T15:31:19;3.97;;;1.77;;
77415;SDS011;66489;49.230;8.520;2023-02-27T15:33:48;3.90;;;1.70;;
77415;SDS011;66489;49.230;8.520;2023-02-27T15:36:20;4.28;;;1.70;;
77415;SDS011;66489;49.230;8.520;2023-02-27T15:39:12;3.42;;;1.40;;
77415;SDS011;66489;49.230;8.520;2023-02-27T15:41:42;4.95;;;1.83;;
77415;SDS011;66489;49.230;8.520;2023-02-27T15:44:10;3.77;;;1.60;;
77415;SDS011;66489;49.230;8.520;2023-02-27T15:46:38;3.40;;;1.50;;
77415;SDS011;66489;49.230;8.520;2023-02-27T15:49:06;4.30;;;1.67;;
77415;SDS011;66489;49.230;8.520;2023-02-27T15:51:32;4.07;;;1.40;;
77415;SDS011;66489;49.230;8.520;2023-02-27T15:53:59;4.20;;;1.45;;
77415;SDS011;66489;49.230;8.520;2023-02-27T15:56:27;4.93;;;1.60;;
77415;SDS011;66489;49.230;8.520;2023-02-27T15:58:58;3.00;;;1.48;;
77415;SDS011;66489;49.230;8.520;2023-02-27T16:01:27;3.22;;;1.48;;
77415;SDS011;66489;49.230;8.520;2023-02-27T16:04:03;4.40;;;1.77;;
77415;SDS011;66489;49.230;8.520;2023-02-27T16:06:32;4.82;;;2.03;;
77415;SDS011;66489;49.230;8.520;2023-02-27T16:09:02;3.78;;;1.90;;
77415;SDS011;66489;49.230;8.520;2023-02-27T16:11:31;7.28;;;3.10;;
77415;SDS011;66489;49.230;8.520;2023-02-27T16:13:59;7.03;;;3.30;;
77415;SDS011;66489;49.230;8.520;2023-02-27T16:16:30;15.43;;;7.10;;
77415;SDS011;66489;49.230;8.520;2023-02-27T16:19:14;7.03;;;3.53;;
77415;SDS011;66489;49.230;8.520;2023-02-27T16:24:43;3.63;;;1.63;;
77415;SDS011;66489;49.230;8.520;2023-02-27T16:27:29;3.97;;;1.60;;
77415;SDS011;66489;49.230;8.520;2023-02-27T16:29:57;5.13;;;1.73;;
77415;SDS011;66489;49.230;8.520;2023-02-27T16:32:35;3.90;;;1.60;;
77415;SDS011;66489;49.230;8.520;2023-02-27T16:35:06;4.80;;;1.58;;
77415;SDS011;66489;49.230;8.520;2023-02-27T16:37:39;3.83;;;1.40;;
77415;SDS011;66489;49.230;8.520;2023-02-27T16:42:43;4.97;;;1.60;;
77415;SDS011;66489;49.230;8.520;2023-02-27T16:45:13;3.13;;;1.60;;
77415;SDS011;66489;49.230;8.520;2023-02-27T16:47:41;4.57;;;1.45;;
77415;SDS011;66489;49.230;8.520;2023-02-27T16:50:30;3.97;;;1.90;;
77415;SDS011;66489;49.230;8.520;2023-02-27T16:52:59;5.18;;;1.90;;
77415;SDS011;66489;49.230;8.520;2023-02-27T16:55:26;4.65;;;1.80;;
77415;SDS011;66489;49.230;8.520;2023-02-27T16:57:52;4.72;;;2.13;;
77415;SDS011;66489;49.230;8.520;2023-02-27T17:00:19;6.32;;;2.30;;
77415;SDS011;66489;49.230;8.520;2023-02-27T17:02:47;8.55;;;4.57;;
77415;SDS011;66489;49.230;8.520;2023-02-27T17:05:14;8.80;;;4.65;;
77415;SDS011;66489;49.230;8.520;2023-02-27T17:07:41;12.15;;;6.60;;
77415;SDS011;66489;49.230;8.520;2023-02-27T17:10:09;14.85;;;8.05;;
77415;SDS011;66489;49.230;8.520;2023-02-27T17:12:39;9.15;;;5.43;;
77415;SDS011;66489;49.230;8.520;2023-02-27T17:15:09;8.95;;;5.18;;
77415;SDS011;66489;49.230;8.520;2023-02-27T17:17:35;8.68;;;4.47;;
77415;SDS011;66489;49.230;8.520;2023-02-27T17:20:02;7.63;;;4.30;;
77415;SDS011;66489;49.230;8.520;2023-02-27T17:22:36;6.28;;;3.20;;
77415;SDS011;66489;49.230;8.520;2023-02-27T17:25:03;8.23;;;4.30;;
77415;SDS011;66489;49.230;8.520;2023-02-27T17:27:30;7.38;;;4.38;;
77415;SDS011;66489;49.230;8.520;2023-02-27T17:29:56;10.38;;;5.43;;
77415;SDS011;66489;49.230;8.520;2023-02-27T17:32:23;11.85;;;6.60;;
77415;SDS011;66489;49.230;8.520;2023-02-27T17:34:51;11.20;;;6.15;;
77415;SDS011;66489;49.230;8.520;2023-02-27T17:37:19;11.73;;;7.10;;
77415;SDS011;66489;49.230;8.520;2023-02-27T17:39:45;11.70;;;6.75;;
77415;SDS011;66489;49.230;8.520;2023-02-27T17:42:12;13.65;;;7.68;;
77415;SDS011;66489;49.230;8.520;2023-02-27T17:44:41;11.90;;;7.18;;
77415;SDS011;66489;49.230;8.520;2023-02-27T17:47:10;15.43;;;10.50;;
77415;SDS011;66489;49.230;8.520;2023-02-27T17:49:37;13.77;;;7.32;;
77415;SDS011;66489;49.230;8.520;2023-02-27T17:52:03;11.75;;;7.00;;
77415;SDS011;66489;49.230;8.520;2023-02-27T17:54:35;11.05;;;6.55;;
77415;SDS011;66489;49.230;8.520;2023-02-27T17:57:01;9.45;;;6.07;;
77415;SDS011;66489;49.230;8.520;2023-02-27T17:59:29;10.57;;;6.13;;
77415;SDS011;66489;49.230;8.520;2023-02-27T18:01:57;11.07;;;4.68;;
77415;SDS011;66489;49.230;8.520;2023-02-27T18:04:24;4.82;;;2.50;;
77415;SDS011;66489;49.230;8.520;2023-02-27T18:06:50;6.68;;;2.60;;
77415;SDS011;66489;49.230;8.520;2023-02-27T18:09:17;4.55;;;2.20;;
77415;SDS011;66489;49.230;8.520;2023-02-27T18:11:44;4.32;;;2.08;;
77415;SDS011;66489;49.230;8.520;2023-02-27T18:14:11;5.65;;;2.38;;
77415;SDS011;66489;49.230;8.520;2023-02-27T18:16:37;4.43;;;1.80;;
77415;SDS011;66489;49.230;8.520;2023-02-27T18:19:04;3.60;;;1.73;;
77415;SDS011;66489;49.230;8.520;2023-02-27T18:21:32;4.90;;;2.38;;
77415;SDS011;66489;49.230;8.520;2023-02-27T18:23:59;6.22;;;3.50;;
77415;SDS011;66489;49.230;8.520;2023-02-27T18:26:27;4.13;;;2.05;;
77415;SDS011;66489;49.230;8.520;2023-02-27T18:29:00;3.83;;;2.00;;
77415;SDS011;66489;49.230;8.520;2023-02-27T18:31:30;5.43;;;1.83;;
77415;SDS011;66489;49.230;8.520;2023-02-27T18:34:14;5.75;;;2.00;;
77415;SDS011;66489;49.230;8.520;2023-02-27T18:36:41;4.70;;;2.40;;
77415;SDS011;66489;49.230;8.520;2023-02-27T18:39:08;5.65;;;2.25;;
77415;SDS011;66489;49.230;8.520;2023-02-27T18:41:35;4.35;;;1.90;;
77415;SDS011;66489;49.230;8.520;2023-02-27T18:44:03;5.70;;;2.00;;
77415;SDS011;66489;49.230;8.520;2023-02-27T18:46:30;4.47;;;1.90;;
77415;SDS011;66489;49.230;8.520;2023-02-27T18:48:58;3.60;;;1.67;;
77415;SDS011;66489;49.230;8.520;2023-02-27T18:51:26;3.60;;;1.70;;
77415;SDS011;66489;49.230;8.520;2023-02-27T18:53:53;3.85;;;1.98;;
77415;SDS011;66489;49.230;8.520;2023-02-27T18:56:21;3.83;;;1.80;;
77415;SDS011;66489;49.230;8.520;2023-02-27T18:58:49;3.58;;;1.48;;
77415;SDS011;66489;49.230;8.520;2023-02-27T19:01:20;3.95;;;1.80;;
77415;SDS011;66489;49.230;8.520;2023-02-27T19:04:08;4.22;;;2.00;;
77415;SDS011;66489;49.230;8.520;2023-02-27T19:06:36;3.80;;;1.90;;
77415;SDS011;66489;49.230;8.520;2023-02-27T19:09:07;3.85;;;1.70;;
77415;SDS011;66489;49.230;8.520;2023-02-27T19:11:35;4.15;;;1.83;;
77415;SDS011;66489;49.230;8.520;2023-02-27T19:14:02;5.03;;;1.98;;
77415;SDS011;66489;49.230;8.520;2023-02-27T19:16:31;4.07;;;2.03;;
77415;SDS011;66489;49.230;8.520;2023-02-27T19:18:59;5.03;;;2.60;;
77415;SDS011;66489;49.230;8.520;2023-02-27T19:21:26;4.72;;;2.42;;
77415;SDS011;66489;49.230;8.520;2023-02-27T19:23:54;5.25;;;2.83;;
77415;SDS011;66489;49.230;8.520;2023-02-27T19:26:20;4.35;;;2.47;;
77415;SDS011;66489;49.230;8.520;2023-02-27T19:28:51;4.07;;;2.03;;
77415;SDS011;66489;49.230;8.520;2023-02-27T19:31:19;4.60;;;2.55;;
77415;SDS011;66489;49.230;8.520;2023-02-27T19:33:47;5.00;;;2.40;;
77415;SDS011;66489;49.230;8.520;2023-02-27T19:36:15;3.90;;;2.03;;
77415;SDS011;66489;49.230;8.520;2023-02-27T19:38:43;5.53;;;2.38;;
77415;SDS011;66489;49.230;8.520;2023-02-27T19:41:10;4.93;;;2.33;;
77415;SDS011;66489;49.230;8.520;2023-02-27T19:43:40;5.30;;;2.80;;
77415;SDS011;66489;49.230;8.520;2023-02-27T19:46:07;4.82;;;2.42;;
77415;SDS011;66489;49.230;8.520;2023-02-27T19:48:36;5.85;;;2.70;;
77415;SDS011;66489;49.230;8.520;2023-02-27T19:51:04;6.35;;;3.10;;
77415;SDS011;66489;49.230;8.520;2023-02-27T19:53:33;6.13;;;2.47;;
77415;SDS011;66489;49.230;8.520;2023-02-27T19:56:02;6.82;;;2.65;;
77415;SDS011;66489;49.230;8.520;2023-02-27T19:58:31;5.50;;;2.55;;
77415;SDS011;66489;49.230;8.520;2023-02-27T20:00:59;5.90;;;2.72;;
77415;SDS011;66489;49.230;8.520;2023-02-27T20:03:26;5.55;;;2.50;;
77415;SDS011;66489;49.230;8.520;2023-02-27T20:05:55;4.80;;;2.33;;
77415;SDS011;66489;49.230;8.520;2023-02-27T20:08:22;6.95;;;2.20;;
77415;SDS011;66489;49.230;8.520;2023-02-27T20:10:55;5.72;;;2.60;;
77415;SDS011;66489;49.230;8.520;2023-02-27T20:13:23;4.38;;;2.40;;
77415;SDS011;66489;49.230;8.520;2023-02-27T20:15:54;5.78;;;2.30;;
77415;SDS011;66489;49.230;8.520;2023-02-27T20:18:21;4.32;;;2.30;;
77415;SDS011;66489;49.230;8.520;2023-02-27T20:20:56;4.25;;;2.20;;
77415;SDS011;66489;49.230;8.520;2023-02-27T20:23:49;6.05;;;2.72;;
77415;SDS011;66489;49.230;8.520;2023-02-27T20:26:18;5.20;;;2.10;;
77415;SDS011;66489;49.230;8.520;2023-02-27T20:28:52;5.18;;;2.55;;
77415;SDS011;66489;49.230;8.520;2023-02-27T20:31:24;7.30;;;3.15;;
77415;SDS011;66489;49.230;8.520;2023-02-27T20:33:56;5.30;;;2.70;;
77415;SDS011;66489;49.230;8.520;2023-02-27T20:36:23;8.63;;;4.60;;
77415;SDS011;66489;49.230;8.520;2023-02-27T20:38:49;5.03;;;2.63;;
77415;SDS011;66489;49.230;8.520;2023-02-27T20:41:17;6.13;;;3.00;;
77415;SDS011;66489;49.230;8.520;2023-02-27T20:43:48;7.47;;;3.42;;
77415;SDS011;66489;49.230;8.520;2023-02-27T20:46:17;6.57;;;2.80;;
77415;SDS011;66489;49.230;8.520;2023-02-27T20:48:46;7.72;;;3.80;;
77415;SDS011;66489;49.230;8.520;2023-02-27T20:51:20;6.03;;;3.10;;
77415;SDS011;66489;49.230;8.520;2023-02-27T20:53:49;6.60;;;3.27;;
77415;SDS011;66489;49.230;8.520;2023-02-27T20:56:20;6.18;;;2.90;;
77415;SDS011;66489;49.230;8.520;2023-02-27T20:58:48;7.40;;;2.90;;
77415;SDS011;66489;49.230;8.520;2023-02-27T21:01:15;6.97;;;3.30;;
77415;SDS011;66489;49.230;8.520;2023-02-27T21:03:44;6.03;;;2.83;;
77415;SDS011;66489;49.230;8.520;2023-02-27T21:06:13;9.82;;;4.30;;
77415;SDS011;66489;49.230;8.520;2023-02-27T21:08:45;7.50;;;3.40;;
77415;SDS011;66489;49.230;8.520;2023-02-27T21:11:23;10.70;;;4.97;;
77415;SDS011;66489;49.230;8.520;2023-02-27T21:13:53;7.32;;;4.50;;
77415;SDS011;66489;49.230;8.520;2023-02-27T21:16:21;8.57;;;3.67;;
77415;SDS011;66489;49.230;8.520;2023-02-27T21:18:49;5.95;;;3.80;;
77415;SDS011;66489;49.230;8.520;2023-02-27T21:21:18;7.40;;;3.00;;
77415;SDS011;66489;49.230;8.520;2023-02-27T21:23:54;6.45;;;2.90;;
77415;SDS011;66489;49.230;8.520;2023-02-27T21:26:32;6.55;;;3.70;;
77415;SDS011;66489;49.230;8.520;2023-02-27T21:29:03;8.98;;;4.10;;
77415;SDS011;66489;49.230;8.520;2023-02-27T21:31:33;5.68;;;3.60;;
77415;SDS011;66489;49.230;8.520;2023-02-27T21:34:00;7.70;;;4.00;;
77415;SDS011;66489;49.230;8.520;2023-02-27T21:36:30;8.18;;;3.70;;
77415;SDS011;66489;49.230;8.520;2023-02-27T21:39:02;8.27;;;4.20;;
77415;SDS011;66489;49.230;8.520;2023-02-27T21:41:30;7.63;;;4.40;;
77415;SDS011;66489;49.230;8.520;2023-02-27T21:43:57;9.20;;;5.10;;
77415;SDS011;66489;49.230;8.520;2023-02-27T21:46:24;7.20;;;3.90;;
77415;SDS011;66489;49.230;8.520;2023-02-27T21:48:51;6.15;;;2.80;;
77415;SDS011;66489;49.230;8.520;2023-02-27T21:51:18;7.55;;;3.95;;
77415;SDS011;66489;49.230;8.520;2023-02-27T21:54:03;13.50;;;6.45;;
77415;SDS011;66489;49.230;8.520;2023-02-27T21:56:30;11.52;;;6.30;;
77415;SDS011;66489;49.230;8.520;2023-02-27T21:59:00;11.07;;;5.75;;
